sensor_id;sensor_type;location;lat;lon;timestamp;pressure;altitude;pressure_sealevel;temperature;humidity
5988;BME280;3021;51.000;6.980;2023-05-19T00:01:11;67444.00;;;10.22;100.00
5988;BME280;3021;51.000;6.980;2023-05-19T00:03:53;67433.75;;;10.15;100.00
5988;BME280;3021;51.000;6.980;2023-05-19T00:06:24;67429.84;;;10.14;100.00
5988;BME280;3021;51.000;6.980;2023-05-19T00:08:59;67427.41;;;10.10;100.00
5988;BME280;3021;51.000;6.980;2023-05-19T00:11:26;67420.03;;;10.06;100.00
5988;BME280;3021;51.000;6.980;2023-05-19T00:13:53;67418.47;;;10.07;100.00
5988;BME280;3021;51.000;6.980;2023-05-19T00:16:18;67414.84;;;10.01;100.00
5988;BME280;3021;51.000;6.980;2023-05-19T00:18:44;67412.97;;;9.97;100.00
5988;BME280;3021;51.000;6.980;2023-05-19T00:21:11;67409.06;;;9.96;100.00
5988;BME280;3021;51.000;6.980;2023-05-19T00:23:37;67411.06;;;9.93;100.00
5988;BME280;3021;51.000;6.980;2023-05-19T00:26:02;67410.66;;;9.95;100.00
5988;BME280;3021;51.000;6.980;2023-05-19T00:28:27;67411.78;;;9.96;100.00
5988;BME280;3021;51.000;6.980;2023-05-19T00:30:52;67399.84;;;9.88;100.00
5988;BME280;3021;51.000;6.980;2023-05-19T00:33:18;67397.94;;;9.83;100.00
5988;BME280;3021;51.000;6.980;2023-05-19T00:35:43;67398.53;;;9.84;100.00
5988;BME280;3021;51.000;6.980;2023-05-19T00:38:08;67388.84;;;9.78;100.00
5988;BME280;3021;51.000;6.980;2023-05-19T00:40:34;67391.44;;;9.75;100.00
5988;BME280;3021;51.000;6.980;2023-05-19T00:43:00;67379.03;;;9.69;100.00
5988;BME280;3021;51.000;6.980;2023-05-19T00:45:26;67380.78;;;9.71;100.00
5988;BME280;3021;51.000;6.980;2023-05-19T00:47:51;67380.63;;;9.68;100.00
5988;BME280;3021;51.000;6.980;2023-05-19T00:50:17;67381.06;;;9.66;100.00
5988;BME280;3021;51.000;6.980;2023-05-19T00:52:42;67378.75;;;9.64;100.00
5988;BME280;3021;51.000;6.980;2023-05-19T00:55:08;67373.09;;;9.61;100.00
5988;BME280;3021;51.000;6.980;2023-05-19T00:57:34;67369.66;;;9.58;100.00
5988;BME280;3021;51.000;6.980;2023-05-19T00:59:59;67361.56;;;9.51;100.00
5988;BME280;3021;51.000;6.980;2023-05-19T01:02:26;67359.25;;;9.49;100.00
5988;BME280;3021;51.000;6.980;2023-05-19T01:04:55;67356.22;;;9.44;100.00
5988;BME280;3021;51.000;6.980;2023-05-19T01:07:21;67352.31;;;9.43;100.00
5988;BME280;3021;51.000;6.980;2023-05-19T01:09:47;67350.03;;;9.41;100.00
5988;BME280;3021;51.000;6.980;2023-05-19T01:12:14;67345.56;;;9.39;100.00
5988;BME280;3021;51.000;6.980;2023-05-19T01:14:39;67340.94;;;9.35;100.00
5988;BME280;3021;51.000;6.980;2023-05-19T01:17:10;67341.22;;;9.30;100.00
5988;BME280;3021;51.000;6.980;2023-05-19T01:22:37;67328.66;;;9.22;100.00
5988;BME280;3021;51.000;6.980;2023-05-19T01:30:47;67309.75;;;9.07;100.00
5988;BME280;3021;51.000;6.980;2023-05-19T01:33:14;67310.63;;;9.03;100.00
5988;BME280;3021;51.000;6.980;2023-05-19T01:35:40;67304.84;;;8.98;100.00
5988;BME280;3021;51.000;6.980;2023-05-19T01:38:08;67295.91;;;8.95;100.00
5988;BME280;3021;51.000;6.980;2023-05-19T01:40:34;67295.19;;;8.92;100.00
5988;BME280;3021;51.000;6.980;2023-05-19T01:43:01;67292.88;;;8.90;100.00
5988;BME280;3021;51.000;6.980;2023-05-19T01:45:28;67288.84;;;8.86;100.00
5988;BME280;3021;51.000;6.980;2023-05-19T01:47:57;67286.53;;;8.84;100.00
5988;BME280;3021;51.000;6.980;2023-05-19T01:50:22;67281.34;;;8.79;100.00
5988;BME280;3021;51.000;6.980;2023-05-19T01:52:48;67282.91;;;8.78;100.00
5988;BME280;3021;51.000;6.980;2023-05-19T01:55:14;67285.97;;;8.84;100.00
5988;BME280;3021;51.000;6.980;2023-05-19T02:00:51;67273.25;;;8.72;100.00
5988;BME280;3021;51.000;6.980;2023-05-19T02:05:54;67269.66;;;8.67;100.00
5988;BME280;3021;51.000;6.980;2023-05-19T02:08:29;67260.13;;;8.63;100.00
5988;BME280;3021;51.000;6.980;2023-05-19T02:10:59;67260.00;;;8.60;100.00
5988;BME280;3021;51.000;6.980;2023-05-19T02:13:30;67258.69;;;8.57;100.00
5988;BME280;3021;51.000;6.980;2023-05-19T02:16:04;67258.28;;;8.59;100.00
5988;BME280;3021;51.000;6.980;2023-05-19T02:18:33;67252.06;;;8.56;100.00
5988;BME280;3021;51.000;6.980;2023-05-19T02:21:00;67251.34;;;8.53;100.00
5988;BME280;3021;51.000;6.980;2023-05-19T02:23:25;67251.19;;;8.50;100.00
5988;BME280;3021;51.000;6.980;2023-05-19T02:25:51;67244.41;;;8.46;100.00
5988;BME280;3021;51.000;6.980;2023-05-19T02:28:16;67247.88;;;8.50;100.00
5988;BME280;3021;51.000;6.980;2023-05-19T02:30:42;67246.31;;;8.51;100.00
5988;BME280;3021;51.000;6.980;2023-05-19T02:33:07;67244.41;;;8.46;100.00
5988;BME280;3021;51.000;6.980;2023-05-19T02:35:35;67237.03;;;8.42;100.00
5988;BME280;3021;51.000;6.980;2023-05-19T02:38:01;67234.75;;;8.40;100.00
5988;BME280;3021;51.000;6.980;2023-05-19T02:40:26;67239.06;;;8.39;100.00
5988;BME280;3021;51.000;6.980;2023-05-19T02:42:51;67234.59;;;8.38;100.00
5988;BME280;3021;51.000;6.980;2023-05-19T02:45:17;67231.72;;;8.35;100.00
5988;BME280;3021;51.000;6.980;2023-05-19T02:47:42;67230.69;;;8.37;100.00
5988;BME280;3021;51.000;6.980;2023-05-19T02:50:08;67231.72;;;8.35;100.00
5988;BME280;3021;51.000;6.980;2023-05-19T02:52:33;67234.44;;;8.35;100.00
5988;BME280;3021;51.000;6.980;2023-05-19T02:54:58;67229.41;;;8.33;100.00
5988;BME280;3021;51.000;6.980;2023-05-19T02:57:24;67227.53;;;8.29;100.00
5988;BME280;3021;51.000;6.980;2023-05-19T02:59:50;67224.63;;;8.26;100.00
5988;BME280;3021;51.000;6.980;2023-05-19T03:02:16;67213.97;;;8.22;100.00
5988;BME280;3021;51.000;6.980;2023-05-19T03:04:41;67210.50;;;8.19;100.00
5988;BME280;3021;51.000;6.980;2023-05-19T03:07:07;67209.78;;;8.16;100.00
5988;BME280;3021;51.000;6.980;2023-05-19T03:09:38;67201.72;;;8.08;100.00
5988;BME280;3021;51.000;6.980;2023-05-19T03:12:03;67197.69;;;8.05;100.00
5988;BME280;3021;51.000;6.980;2023-05-19T03:14:31;67195.81;;;8.01;100.00
5988;BME280;3021;51.000;6.980;2023-05-19T03:16:56;67189.03;;;7.97;100.00
5988;BME280;3021;51.000;6.980;2023-05-19T03:19:22;67192.34;;;7.98;100.00
5988;BME280;3021;51.000;6.980;2023-05-19T03:21:47;67187.44;;;7.98;100.00
5988;BME280;3021;51.000;6.980;2023-05-19T03:24:13;67191.34;;;7.99;100.00
5988;BME280;3021;51.000;6.980;2023-05-19T03:26:38;67186.72;;;7.95;100.00
5988;BME280;3021;51.000;6.980;2023-05-19T03:29:04;67187.88;;;7.96;100.00
5988;BME280;3021;51.000;6.980;2023-05-19T03:31:29;67187.28;;;7.95;100.00
5988;BME280;3021;51.000;6.980;2023-05-19T03:33:55;67191.19;;;7.96;100.00
5988;BME280;3021;51.000;6.980;2023-05-19T03:36:22;67181.84;;;7.95;100.00
5988;BME280;3021;51.000;6.980;2023-05-19T03:38:48;67204.44;;;8.08;100.00
5988;BME280;3021;51.000;6.980;2023-05-19T03:41:13;67202.31;;;8.09;100.00
5988;BME280;3021;51.000;6.980;2023-05-19T03:43:39;67194.38;;;8.04;100.00
5988;BME280;3021;51.000;6.980;2023-05-19T03:46:04;67196.53;;;8.04;100.00
5988;BME280;3021;51.000;6.980;2023-05-19T03:48:29;67203.31;;;8.07;100.00
5988;BME280;3021;51.000;6.980;2023-05-19T03:50:55;67210.78;;;8.14;100.00
5988;BME280;3021;51.000;6.980;2023-05-19T03:53:20;67208.66;;;8.15;100.00
5988;BME280;3021;51.000;6.980;2023-05-19T03:55:45;67217.44;;;8.25;100.00
5988;BME280;3021;51.000;6.980;2023-05-19T03:58:12;67214.41;;;8.20;100.00
5988;BME280;3021;51.000;6.980;2023-05-19T04:00:39;67211.50;;;8.17;100.00
5988;BME280;3021;51.000;6.980;2023-05-19T04:03:04;67217.13;;;8.20;100.00
5988;BME280;3021;51.000;6.980;2023-05-19T04:05:29;67212.81;;;8.21;100.00
5988;BME280;3021;51.000;6.980;2023-05-19T04:07:55;67221.19;;;8.23;100.00
5988;BME280;3021;51.000;6.980;2023-05-19T04:10:20;67224.63;;;8.26;100.00
5988;BME280;3021;51.000;6.980;2023-05-19T04:12:46;67227.66;;;8.31;100.00
5988;BME280;3021;51.000;6.980;2023-05-19T04:15:12;67236.31;;;8.39;100.00
5988;BME280;3021;51.000;6.980;2023-05-19T04:17:37;67242.09;;;8.44;100.00
5988;BME280;3021;51.000;6.980;2023-05-19T04:20:03;67249.59;;;8.51;100.00
5988;BME280;3021;51.000;6.980;2023-05-19T04:22:30;67252.66;;;8.56;100.00
5988;BME280;3021;51.000;6.980;2023-05-19T04:24:55;67266.47;;;8.69;100.00
5988;BME280;3021;51.000;6.980;2023-05-19T04:27:20;67279.03;;;8.77;100.00
5988;BME280;3021;51.000;6.980;2023-05-19T04:29:46;67284.94;;;8.85;100.00
5988;BME280;3021;51.000;6.980;2023-05-19T04:32:12;67298.66;;;8.95;100.00
5988;BME280;3021;51.000;6.980;2023-05-19T04:34:41;67313.66;;;9.08;100.00
5988;BME280;3021;51.000;6.980;2023-05-19T04:37:12;67323.03;;;9.19;100.00
5988;BME280;3021;51.000;6.980;2023-05-19T04:39:41;67335.16;;;9.30;100.00
5988;BME280;3021;51.000;6.980;2023-05-19T04:42:11;67345.56;;;9.39;100.00
5988;BME280;3021;51.000;6.980;2023-05-19T04:44:39;67370.38;;;9.61;100.00
5988;BME280;3021;51.000;6.980;2023-05-19T04:47:06;67388.25;;;9.77;100.00
5988;BME280;3021;51.000;6.980;2023-05-19T04:49:32;67404.31;;;9.89;100.00
5988;BME280;3021;51.000;6.980;2023-05-19T04:51:58;67428.72;;;10.13;100.00
5988;BME280;3021;51.000;6.980;2023-05-19T04:54:23;67451.25;;;10.33;100.00
5988;BME280;3021;51.000;6.980;2023-05-19T04:56:48;67472.06;;;10.52;100.00
5988;BME280;3021;51.000;6.980;2023-05-19T04:59:14;67492.72;;;10.68;100.00
5988;BME280;3021;51.000;6.980;2023-05-19T05:01:39;67507.16;;;10.81;100.00
5988;BME280;3021;51.000;6.980;2023-05-19T05:04:05;67529.84;;;11.03;100.00
5988;BME280;3021;51.000;6.980;2023-05-19T05:06:31;67556.31;;;11.24;100.00
5988;BME280;3021;51.000;6.980;2023-05-19T05:08:56;67603.00;;;11.64;100.00
5988;BME280;3021;51.000;6.980;2023-05-19T05:11:22;67677.94;;;12.35;100.00
5988;BME280;3021;51.000;6.980;2023-05-19T05:13:48;67919.19;;;14.55;100.00
5988;BME280;3021;51.000;6.980;2023-05-19T05:16:13;68332.78;;;18.24;100.00
5988;BME280;3021;51.000;6.980;2023-05-19T05:18:39;68715.22;;;21.60;100.00
5988;BME280;3021;51.000;6.980;2023-05-19T05:21:06;68907.75;;;23.29;100.00
5988;BME280;3021;51.000;6.980;2023-05-19T05:23:31;69015.06;;;24.22;100.00
5988;BME280;3021;51.000;6.980;2023-05-19T05:25:57;69174.16;;;25.64;100.00
5988;BME280;3021;51.000;6.980;2023-05-19T05:28:22;69263.75;;;26.46;100.00
5988;BME280;3021;51.000;6.980;2023-05-19T05:30:48;69197.53;;;25.85;100.00
5988;BME280;3021;51.000;6.980;2023-05-19T05:33:14;69203.41;;;25.90;100.00
5988;BME280;3021;51.000;6.980;2023-05-19T05:35:40;69273.72;;;26.54;100.00
5988;BME280;3021;51.000;6.980;2023-05-19T05:38:05;69317.50;;;26.90;100.00
5988;BME280;3021;51.000;6.980;2023-05-19T05:40:31;69286.47;;;26.63;100.00
5988;BME280;3021;51.000;6.980;2023-05-19T05:42:56;69239.09;;;26.21;100.00
5988;BME280;3021;51.000;6.980;2023-05-19T05:45:23;69244.81;;;26.24;96.09
5988;BME280;3021;51.000;6.980;2023-05-19T05:47:49;69242.00;;;26.24;94.85
5988;BME280;3021;51.000;6.980;2023-05-19T05:50:15;69299.94;;;26.75;94.15
5988;BME280;3021;51.000;6.980;2023-05-19T05:52:45;69198.72;;;25.86;93.80
5988;BME280;3021;51.000;6.980;2023-05-19T05:55:11;69074.09;;;24.74;94.09
5988;BME280;3021;51.000;6.980;2023-05-19T05:57:36;68944.97;;;23.60;98.19
5988;BME280;3021;51.000;6.980;2023-05-19T06:00:03;68931.69;;;23.51;99.32
5988;BME280;3021;51.000;6.980;2023-05-19T06:02:31;69021.03;;;24.29;100.00
5988;BME280;3021;51.000;6.980;2023-05-19T06:04:56;69261.19;;;26.38;96.58
5988;BME280;3021;51.000;6.980;2023-05-19T06:07:22;69328.50;;;26.98;92.78
5988;BME280;3021;51.000;6.980;2023-05-19T06:09:48;69412.91;;;27.74;90.14
5988;BME280;3021;51.000;6.980;2023-05-19T06:12:13;69715.34;;;30.40;85.86
5988;BME280;3021;51.000;6.980;2023-05-19T06:14:39;70026.06;;;33.15;79.88
5988;BME280;3021;51.000;6.980;2023-05-19T06:17:04;70227.75;;;34.92;71.91
5988;BME280;3021;51.000;6.980;2023-05-19T06:19:29;70096.03;;;33.76;71.36
5988;BME280;3021;51.000;6.980;2023-05-19T06:21:55;70259.44;;;35.17;69.64
5988;BME280;3021;51.000;6.980;2023-05-19T06:24:20;70445.53;;;36.82;67.00
5988;BME280;3021;51.000;6.980;2023-05-19T06:26:45;70474.31;;;37.05;63.02
5988;BME280;3021;51.000;6.980;2023-05-19T06:29:11;70160.59;;;34.31;63.06
5988;BME280;3021;51.000;6.980;2023-05-19T06:31:36;69931.97;;;32.30;66.09
5988;BME280;3021;51.000;6.980;2023-05-19T06:34:01;69828.03;;;31.39;68.38
5988;BME280;3021;51.000;6.980;2023-05-19T06:36:26;69579.78;;;29.19;72.20
5988;BME280;3021;51.000;6.980;2023-05-19T06:38:52;69596.78;;;29.34;72.80
5988;BME280;3021;51.000;6.980;2023-05-19T06:41:17;69862.09;;;31.69;68.36
5988;BME280;3021;51.000;6.980;2023-05-19T06:43:42;69811.59;;;31.25;70.82
5988;BME280;3021;51.000;6.980;2023-05-19T06:46:08;69794.59;;;31.10;71.39
5988;BME280;3021;51.000;6.980;2023-05-19T06:48:33;69680.16;;;30.09;72.00
5988;BME280;3021;51.000;6.980;2023-05-19T06:50:58;69399.44;;;27.63;73.57
5988;BME280;3021;51.000;6.980;2023-05-19T06:53:24;69149.97;;;25.38;78.27
5988;BME280;3021;51.000;6.980;2023-05-19T06:55:49;69055.38;;;24.57;87.01
5988;BME280;3021;51.000;6.980;2023-05-19T06:58:15;68951.97;;;23.66;88.47
5988;BME280;3021;51.000;6.980;2023-05-19T07:00:40;68885.41;;;23.07;95.30
5988;BME280;3021;51.000;6.980;2023-05-19T07:03:06;68813.09;;;22.43;98.58
5988;BME280;3021;51.000;6.980;2023-05-19T07:05:31;68784.50;;;22.18;100.00
5988;BME280;3021;51.000;6.980;2023-05-19T07:07:56;68780.88;;;22.13;100.00
5988;BME280;3021;51.000;6.980;2023-05-19T07:10:21;68755.91;;;21.93;100.00
5988;BME280;3021;51.000;6.980;2023-05-19T07:12:47;68737.13;;;21.74;100.00
5988;BME280;3021;51.000;6.980;2023-05-19T07:15:12;68701.69;;;21.45;100.00
5988;BME280;3021;51.000;6.980;2023-05-19T07:17:37;68684.63;;;21.28;100.00
5988;BME280;3021;51.000;6.980;2023-05-19T07:20:03;68680.09;;;21.26;100.00
5988;BME280;3021;51.000;6.980;2023-05-19T07:22:34;68655.50;;;21.02;100.00
5988;BME280;3021;51.000;6.980;2023-05-19T07:25:00;68619.97;;;20.70;100.00
5988;BME280;3021;51.000;6.980;2023-05-19T07:27:25;68611.78;;;20.63;100.00
5988;BME280;3021;51.000;6.980;2023-05-19T07:29:50;68611.34;;;20.65;100.00
5988;BME280;3021;51.000;6.980;2023-05-19T07:32:16;68621.72;;;20.72;100.00
5988;BME280;3021;51.000;6.980;2023-05-19T07:34:41;68633.38;;;20.82;100.00
5988;BME280;3021;51.000;6.980;2023-05-19T07:37:07;68614.69;;;20.66;100.00
5988;BME280;3021;51.000;6.980;2023-05-19T07:39:33;68658.69;;;21.10;100.00
5988;BME280;3021;51.000;6.980;2023-05-19T07:41:59;68686.41;;;21.29;100.00
5988;BME280;3021;51.000;6.980;2023-05-19T07:44:24;68658.56;;;21.07;100.00
5988;BME280;3021;51.000;6.980;2023-05-19T07:46:51;68695.13;;;21.37;100.00
5988;BME280;3021;51.000;6.980;2023-05-19T07:49:17;68726.06;;;21.64;100.00
5988;BME280;3021;51.000;6.980;2023-05-19T07:51:42;68762.91;;;21.99;100.00
5988;BME280;3021;51.000;6.980;2023-05-19T07:54:07;68692.22;;;21.34;100.00
5988;BME280;3021;51.000;6.980;2023-05-19T07:56:33;68694.56;;;21.36;100.00
5988;BME280;3021;51.000;6.980;2023-05-19T07:58:58;68717.91;;;21.57;100.00
5988;BME280;3021;51.000;6.980;2023-05-19T08:01:23;68683.63;;;21.29;100.00
5988;BME280;3021;51.000;6.980;2023-05-19T08:03:49;68676.75;;;21.26;100.00
5988;BME280;3021;51.000;6.980;2023-05-19T08:06:14;68738.31;;;21.75;100.00
5988;BME280;3021;51.000;6.980;2023-05-19T08:08:39;68752.97;;;21.90;100.00
5988;BME280;3021;51.000;6.980;2023-05-19T08:11:06;68816.47;;;22.44;100.00
5988;BME280;3021;51.000;6.980;2023-05-19T08:13:31;68850.44;;;22.76;100.00
5988;BME280;3021;51.000;6.980;2023-05-19T08:15:57;68903.44;;;23.21;100.00
5988;BME280;3021;51.000;6.980;2023-05-19T08:18:27;68969.50;;;23.81;100.00
5988;BME280;3021;51.000;6.980;2023-05-19T08:20:52;69040.88;;;24.47;100.00
5988;BME280;3021;51.000;6.980;2023-05-19T08:23:18;69100.84;;;24.95;97.47
5988;BME280;3021;51.000;6.980;2023-05-19T08:25:43;69147.75;;;25.39;97.74
5988;BME280;3021;51.000;6.980;2023-05-19T08:28:09;69171.72;;;25.60;96.93
5988;BME280;3021;51.000;6.980;2023-05-19T08:30:34;69168.09;;;25.54;94.43
5988;BME280;3021;51.000;6.980;2023-05-19T08:33:00;69195.09;;;25.80;92.90
5988;BME280;3021;51.000;6.980;2023-05-19T08:35:26;69239.09;;;26.21;94.22
5988;BME280;3021;51.000;6.980;2023-05-19T08:37:51;69261.91;;;26.42;94.13
5988;BME280;3021;51.000;6.980;2023-05-19T08:40:17;69303.47;;;26.78;94.32
5988;BME280;3021;51.000;6.980;2023-05-19T08:42:44;69358.47;;;27.27;90.60
5988;BME280;3021;51.000;6.980;2023-05-19T08:45:10;69347.81;;;27.15;91.42
5988;BME280;3021;51.000;6.980;2023-05-19T08:47:35;69476.19;;;28.30;89.32
5988;BME280;3021;51.000;6.980;2023-05-19T08:50:04;69945.56;;;32.45;82.95
5988;BME280;3021;51.000;6.980;2023-05-19T08:52:33;70383.72;;;36.28;72.26
5988;BME280;3021;51.000;6.980;2023-05-19T08:55:04;70367.16;;;36.11;68.52
5988;BME280;3021;51.000;6.980;2023-05-19T08:57:33;70601.50;;;38.14;66.49
5988;BME280;3021;51.000;6.980;2023-05-19T08:59:59;70537.38;;;37.60;62.04
5988;BME280;3021;51.000;6.980;2023-05-19T09:02:26;70474.31;;;37.05;61.38
5988;BME280;3021;51.000;6.980;2023-05-19T09:04:52;70878.91;;;40.61;57.78
5988;BME280;3021;51.000;6.980;2023-05-19T09:07:17;71217.91;;;43.54;54.77
5988;BME280;3021;51.000;6.980;2023-05-19T09:09:44;71456.97;;;45.67;49.48
5988;BME280;3021;51.000;6.980;2023-05-19T09:12:09;70900.16;;;40.80;50.40
5988;BME280;3021;51.000;6.980;2023-05-19T09:14:36;70839.94;;;40.27;51.92
5988;BME280;3021;51.000;6.980;2023-05-19T09:17:02;71134.03;;;42.84;47.58
5988;BME280;3021;51.000;6.980;2023-05-19T09:19:27;70514.31;;;37.38;49.73
5988;BME280;3021;51.000;6.980;2023-05-19T09:22:00;69823.72;;;31.30;56.66
5988;BME280;3021;51.000;6.980;2023-05-19T09:24:27;69653.56;;;29.81;61.05
5988;BME280;3021;51.000;6.980;2023-05-19T09:26:54;70044.22;;;33.29;61.65
5988;BME280;3021;51.000;6.980;2023-05-19T09:29:21;70363.09;;;36.10;56.20
5988;BME280;3021;51.000;6.980;2023-05-19T09:31:51;70307.00;;;35.56;54.44
5988;BME280;3021;51.000;6.980;2023-05-19T09:34:18;70142.28;;;34.12;56.98
5988;BME280;3021;51.000;6.980;2023-05-19T09:36:46;69794.69;;;31.12;56.64
5988;BME280;3021;51.000;6.980;2023-05-19T09:39:14;69459.19;;;28.15;58.22
5988;BME280;3021;51.000;6.980;2023-05-19T09:41:40;69186.34;;;25.73;61.42
5988;BME280;3021;51.000;6.980;2023-05-19T09:44:06;68985.75;;;23.93;65.95
5988;BME280;3021;51.000;6.980;2023-05-19T09:46:32;69396.41;;;27.57;65.22
5988;BME280;3021;51.000;6.980;2023-05-19T09:49:04;69606.78;;;29.42;61.40
5988;BME280;3021;51.000;6.980;2023-05-19T09:51:34;69600.41;;;29.39;59.74
5988;BME280;3021;51.000;6.980;2023-05-19T09:54:01;69718.75;;;30.41;58.92
5988;BME280;3021;51.000;6.980;2023-05-19T09:56:30;69605.59;;;29.41;58.53
5988;BME280;3021;51.000;6.980;2023-05-19T09:58:58;69526.47;;;28.72;60.99
5988;BME280;3021;51.000;6.980;2023-05-19T10:01:24;69327.91;;;26.97;60.75
5988;BME280;3021;51.000;6.980;2023-05-19T10:03:50;69313.78;;;26.82;64.85
5988;BME280;3021;51.000;6.980;2023-05-19T10:06:16;69703.63;;;30.30;64.28
5988;BME280;3021;51.000;6.980;2023-05-19T10:08:42;69787.53;;;31.04;58.93
5988;BME280;3021;51.000;6.980;2023-05-19T10:11:08;69813.34;;;31.26;58.70
5988;BME280;3021;51.000;6.980;2023-05-19T10:13:35;69959.00;;;32.54;56.25
5988;BME280;3021;51.000;6.980;2023-05-19T10:16:02;70210.00;;;34.74;53.58
5988;BME280;3021;51.000;6.980;2023-05-19T10:18:28;70381.94;;;36.27;53.12
5988;BME280;3021;51.000;6.980;2023-05-19T10:20:53;70514.97;;;37.41;50.40
5988;BME280;3021;51.000;6.980;2023-05-19T10:23:19;70691.22;;;38.95;54.75
5988;BME280;3021;51.000;6.980;2023-05-19T10:25:45;70805.13;;;39.97;48.12
5988;BME280;3021;51.000;6.980;2023-05-19T10:28:15;70471.38;;;37.03;48.74
5988;BME280;3021;51.000;6.980;2023-05-19T10:30:45;70132.28;;;34.03;50.47
5988;BME280;3021;51.000;6.980;2023-05-19T10:33:16;70147.06;;;34.19;54.28
5988;BME280;3021;51.000;6.980;2023-05-19T10:38:40;70145.88;;;34.18;51.55
5988;BME280;3021;51.000;6.980;2023-05-19T10:41:15;69816.19;;;31.26;53.67
5988;BME280;3021;51.000;6.980;2023-05-19T10:44:08;69886.63;;;31.88;53.27
5988;BME280;3021;51.000;6.980;2023-05-19T10:46:35;69729.94;;;30.50;54.06
5988;BME280;3021;51.000;6.980;2023-05-19T10:49:00;69931.97;;;32.30;54.21
5988;BME280;3021;51.000;6.980;2023-05-19T10:51:32;70373.00;;;36.16;49.12
5988;BME280;3021;51.000;6.980;2023-05-19T10:54:16;70627.53;;;38.39;48.61
5988;BME280;3021;51.000;6.980;2023-05-19T10:56:43;70573.31;;;37.92;47.65
5988;BME280;3021;51.000;6.980;2023-05-19T10:59:34;70398.44;;;36.41;49.57
5988;BME280;3021;51.000;6.980;2023-05-19T11:02:05;70312.91;;;35.61;49.00
5988;BME280;3021;51.000;6.980;2023-05-19T11:04:48;70404.22;;;36.44;48.43
5988;BME280;3021;51.000;6.980;2023-05-19T11:07:20;70583.34;;;38.00;45.91
5988;BME280;3021;51.000;6.980;2023-05-19T11:09:50;70324.16;;;35.74;46.42
5988;BME280;3021;51.000;6.980;2023-05-19T11:12:20;69901.91;;;32.01;51.29
5988;BME280;3021;51.000;6.980;2023-05-19T11:14:51;69874.31;;;31.77;53.57
5988;BME280;3021;51.000;6.980;2023-05-19T11:17:18;70281.78;;;35.37;49.52
5988;BME280;3021;51.000;6.980;2023-05-19T11:19:53;70434.28;;;36.70;47.75
5988;BME280;3021;51.000;6.980;2023-05-19T11:22:22;69979.06;;;32.74;49.08
5988;BME280;3021;51.000;6.980;2023-05-19T11:24:48;69982.41;;;32.72;50.17
5988;BME280;3021;51.000;6.980;2023-05-19T11:27:28;69920.72;;;32.18;52.01
5988;BME280;3021;51.000;6.980;2023-05-19T11:32:31;69506.63;;;28.57;54.56
5988;BME280;3021;51.000;6.980;2023-05-19T11:35:00;69395.22;;;27.56;57.63
5988;BME280;3021;51.000;6.980;2023-05-19T11:37:27;69274.53;;;26.48;56.97
5988;BME280;3021;51.000;6.980;2023-05-19T11:39:56;69154.06;;;25.42;62.50
5988;BME280;3021;51.000;6.980;2023-05-19T11:42:22;69112.06;;;25.07;62.39
5988;BME280;3021;51.000;6.980;2023-05-19T11:44:47;69116.28;;;25.13;60.25
5988;BME280;3021;51.000;6.980;2023-05-19T11:47:13;69144.81;;;25.36;62.33
5988;BME280;3021;51.000;6.980;2023-05-19T11:49:43;69085.09;;;24.81;61.81
5988;BME280;3021;51.000;6.980;2023-05-19T11:52:09;69028.50;;;24.33;63.25
5988;BME280;3021;51.000;6.980;2023-05-19T11:54:34;69034.81;;;24.37;69.72
5988;BME280;3021;51.000;6.980;2023-05-19T11:57:02;69023.03;;;24.24;65.45
5988;BME280;3021;51.000;6.980;2023-05-19T11:59:36;68962.94;;;23.73;64.46
5988;BME280;3021;51.000;6.980;2023-05-19T12:02:14;68951.41;;;23.66;69.65
5988;BME280;3021;51.000;6.980;2023-05-19T12:04:40;68948.34;;;23.60;67.46
5988;BME280;3021;51.000;6.980;2023-05-19T12:07:05;69009.69;;;24.14;71.37
5988;BME280;3021;51.000;6.980;2023-05-19T12:09:31;69044.88;;;24.48;67.27
5988;BME280;3021;51.000;6.980;2023-05-19T12:11:56;69031.31;;;24.33;68.39
5988;BME280;3021;51.000;6.980;2023-05-19T12:14:25;68940.78;;;23.54;68.43
5988;BME280;3021;51.000;6.980;2023-05-19T12:16:50;68850.31;;;22.74;68.51
5988;BME280;3021;51.000;6.980;2023-05-19T12:19:16;68823.00;;;22.52;71.96
5988;BME280;3021;51.000;6.980;2023-05-19T12:21:41;68844.47;;;22.69;72.22
5988;BME280;3021;51.000;6.980;2023-05-19T12:24:07;68846.22;;;22.70;70.97
5988;BME280;3021;51.000;6.980;2023-05-19T12:26:34;68936.69;;;23.50;73.46
5988;BME280;3021;51.000;6.980;2023-05-19T12:29:00;68991.72;;;24.01;69.22
5988;BME280;3021;51.000;6.980;2023-05-19T12:31:25;69057.59;;;24.57;71.38
5988;BME280;3021;51.000;6.980;2023-05-19T12:33:51;69018.13;;;24.27;70.08
5988;BME280;3021;51.000;6.980;2023-05-19T12:36:16;68967.63;;;23.77;72.51
5988;BME280;3021;51.000;6.980;2023-05-19T12:38:42;68913.47;;;23.32;72.60
5988;BME280;3021;51.000;6.980;2023-05-19T12:41:11;68835.84;;;22.64;73.27
5988;BME280;3021;51.000;6.980;2023-05-19T12:43:36;68745.16;;;21.79;75.07
5988;BME280;3021;51.000;6.980;2023-05-19T12:46:12;68709.25;;;21.52;74.64
5988;BME280;3021;51.000;6.980;2023-05-19T12:48:45;68726.63;;;21.65;76.56
5988;BME280;3021;51.000;6.980;2023-05-19T12:51:19;68749.38;;;21.85;78.28
5988;BME280;3021;51.000;6.980;2023-05-19T12:53:45;68792.66;;;22.25;74.87
5988;BME280;3021;51.000;6.980;2023-05-19T12:56:14;68822.75;;;22.47;76.88
5988;BME280;3021;51.000;6.980;2023-05-19T12:58:41;68851.47;;;22.75;77.43
5988;BME280;3021;51.000;6.980;2023-05-19T13:01:14;68850.44;;;22.76;75.09
5988;BME280;3021;51.000;6.980;2023-05-19T13:03:39;68901.22;;;23.21;75.13
5988;BME280;3021;51.000;6.980;2023-05-19T13:06:06;68908.81;;;23.28;73.92
5988;BME280;3021;51.000;6.980;2023-05-19T13:08:31;68861.38;;;22.84;73.87
5988;BME280;3021;51.000;6.980;2023-05-19T13:10:56;68872.59;;;22.96;75.08
5988;BME280;3021;51.000;6.980;2023-05-19T13:13:22;68875.97;;;22.97;72.28
5988;BME280;3021;51.000;6.980;2023-05-19T13:15:47;68855.66;;;22.81;74.30
5988;BME280;3021;51.000;6.980;2023-05-19T13:18:13;68818.78;;;22.46;74.45
5988;BME280;3021;51.000;6.980;2023-05-19T13:20:40;68766.41;;;22.02;75.29
5988;BME280;3021;51.000;6.980;2023-05-19T13:23:06;68758.69;;;21.93;74.60
5988;BME280;3021;51.000;6.980;2023-05-19T13:25:32;68722.09;;;21.63;75.12
5988;BME280;3021;51.000;6.980;2023-05-19T13:27:59;68727.66;;;21.63;76.47
5988;BME280;3021;51.000;6.980;2023-05-19T13:30:26;68749.97;;;21.85;76.83
5988;BME280;3021;51.000;6.980;2023-05-19T13:32:52;68749.97;;;21.85;76.76
5988;BME280;3021;51.000;6.980;2023-05-19T13:35:17;68769.19;;;22.02;75.92
5988;BME280;3021;51.000;6.980;2023-05-19T13:37:43;68774.56;;;22.09;77.88